sensor_id;sensor_type;location;lat;lon;timestamp;pressure;altitude;pressure_sealevel;temperature;humidity
11643;BME280;5877;50.930;6.918;2022-09-16T00:00:49;100485.00;;;12.15;73.39
11643;BME280;5877;50.930;6.918;2022-09-16T00:03:16;99944.56;;;8.69;73.15
11643;BME280;5877;50.930;6.918;2022-09-16T00:05:46;100110.56;;;9.66;72.79
11643;BME280;5877;50.930;6.918;2022-09-16T00:08:17;100504.44;;;12.14;72.99
11643;BME280;5877;50.930;6.918;2022-09-16T00:10:45;100170.22;;;9.89;72.90
11643;BME280;5877;50.930;6.918;2022-09-16T00:13:12;100061.66;;;9.42;72.78
11643;BME280;5877;50.930;6.918;2022-09-16T00:15:43;100333.88;;;10.98;73.06
11643;BME280;5877;50.930;6.918;2022-09-16T00:18:10;100347.19;;;11.15;73.11
11643;BME280;5877;50.930;6.918;2022-09-16T00:20:50;100502.78;;;12.01;73.02
11643;BME280;5877;50.930;6.918;2022-09-16T00:23:18;100092.31;;;9.60;72.61
11643;BME280;5877;50.930;6.918;2022-09-16T00:25:52;100484.75;;;12.05;72.74
11643;BME280;5877;50.930;6.918;2022-09-16T00:28:20;100488.16;;;12.06;72.64
11643;BME280;5877;50.930;6.918;2022-09-16T00:30:48;100479.25;;;12.07;72.65
11643;BME280;5877;50.930;6.918;2022-09-16T00:33:16;100369.94;;;11.39;72.44
11643;BME280;5877;50.930;6.918;2022-09-16T00:35:42;100483.50;;;12.08;72.41
11643;BME280;5877;50.930;6.918;2022-09-16T00:38:10;100414.47;;;11.64;72.78
11643;BME280;5877;50.930;6.918;2022-09-16T00:40:46;100480.50;;;12.04;73.15
11643;BME280;5877;50.930;6.918;2022-09-16T00:43:17;100451.84;;;11.84;73.01
11643;BME280;5877;50.930;6.918;2022-09-16T00:45:47;99662.28;;;6.83;72.43
11643;BME280;5877;50.930;6.918;2022-09-16T00:48:19;100109.13;;;9.70;72.61
11643;BME280;5877;50.930;6.918;2022-09-16T00:50:55;100003.78;;;9.07;73.11
11643;BME280;5877;50.930;6.918;2022-09-16T00:53:30;100372.09;;;11.42;72.83
11643;BME280;5877;50.930;6.918;2022-09-16T00:56:02;100480.41;;;12.11;72.88
11643;BME280;5877;50.930;6.918;2022-09-16T00:58:42;100254.13;;;10.62;73.01
11643;BME280;5877;50.930;6.918;2022-09-16T01:01:11;100486.13;;;12.08;73.04
11643;BME280;5877;50.930;6.918;2022-09-16T01:03:44;100158.41;;;9.98;72.97
11643;BME280;5877;50.930;6.918;2022-09-16T01:06:12;100337.09;;;11.00;73.34
11643;BME280;5877;50.930;6.918;2022-09-16T01:08:44;100374.47;;;11.32;73.39
11643;BME280;5877;50.930;6.918;2022-09-16T01:11:11;100458.34;;;11.82;73.61
11643;BME280;5877;50.930;6.918;2022-09-16T01:13:39;100410.31;;;11.26;73.70
11643;BME280;5877;50.930;6.918;2022-09-16T01:16:25;100065.91;;;9.18;73.88
11643;BME280;5877;50.930;6.918;2022-09-16T01:22:27;100481.72;;;11.90;74.47
11643;BME280;5877;50.930;6.918;2022-09-16T01:30:42;100488.63;;;12.02;74.12
11643;BME280;5877;50.930;6.918;2022-09-16T01:33:31;100327.91;;;10.91;73.38
11643;BME280;5877;50.930;6.918;2022-09-16T01:36:36;100484.28;;;12.08;73.64
11643;BME280;5877;50.930;6.918;2022-09-16T01:39:23;100019.44;;;9.14;73.37
11643;BME280;5877;50.930;6.918;2022-09-16T01:44:48;99823.41;;;7.82;73.74
11643;BME280;5877;50.930;6.918;2022-09-16T01:47:33;100163.09;;;10.33;73.68
11643;BME280;5877;50.930;6.918;2022-09-16T01:50:15;100473.72;;;12.38;73.48
11643;BME280;5877;50.930;6.918;2022-09-16T01:55:41;100270.22;;;11.14;72.96
11643;BME280;5877;50.930;6.918;2022-09-16T01:58:20;100308.03;;;11.55;73.40
11643;BME280;5877;50.930;6.918;2022-09-16T02:00:52;100336.41;;;11.64;73.45
11643;BME280;5877;50.930;6.918;2022-09-16T02:03:24;100473.41;;;12.58;73.58
11643;BME280;5877;50.930;6.918;2022-09-16T02:06:17;100404.81;;;12.18;73.36
11643;BME280;5877;50.930;6.918;2022-09-16T02:08:52;100477.19;;;12.62;73.35
11643;BME280;5877;50.930;6.918;2022-09-16T02:11:22;100465.16;;;12.66;73.15
11643;BME280;5877;50.930;6.918;2022-09-16T02:14:01;100475.69;;;12.66;73.07
11643;BME280;5877;50.930;6.918;2022-09-16T02:16:53;100455.09;;;12.63;73.42
11643;BME280;5877;50.930;6.918;2022-09-16T02:19:25;100473.53;;;12.63;73.10
11643;BME280;5877;50.930;6.918;2022-09-16T02:21:54;100458.53;;;12.63;73.35
11643;BME280;5877;50.930;6.918;2022-09-16T02:24:23;100472.72;;;12.62;73.35
11643;BME280;5877;50.930;6.918;2022-09-16T02:26:55;100258.69;;;11.15;73.41
11643;BME280;5877;50.930;6.918;2022-09-16T02:29:26;100463.66;;;12.58;73.58
11643;BME280;5877;50.930;6.918;2022-09-16T02:31:59;100404.00;;;12.06;73.16
11643;BME280;5877;50.930;6.918;2022-09-16T02:34:40;100430.53;;;12.16;73.51
11643;BME280;5877;50.930;6.918;2022-09-16T02:37:14;100209.78;;;11.02;73.64
11643;BME280;5877;50.930;6.918;2022-09-16T02:39:47;100438.25;;;12.52;73.40
11643;BME280;5877;50.930;6.918;2022-09-16T02:42:15;100278.34;;;11.54;73.74
11643;BME280;5877;50.930;6.918;2022-09-16T02:44:45;100461.84;;;12.82;73.89
11643;BME280;5877;50.930;6.918;2022-09-16T02:50:09;100163.09;;;11.04;74.32
11643;BME280;5877;50.930;6.918;2022-09-16T02:52:59;100464.59;;;12.87;74.66
11643;BME280;5877;50.930;6.918;2022-09-16T02:55:37;100458.63;;;12.92;74.55
11643;BME280;5877;50.930;6.918;2022-09-16T02:58:06;100465.50;;;12.93;74.53
11643;BME280;5877;50.930;6.918;2022-09-16T03:00:38;100290.59;;;11.72;74.45
11643;BME280;5877;50.930;6.918;2022-09-16T03:03:10;100464.03;;;12.85;74.24
11643;BME280;5877;50.930;6.918;2022-09-16T03:06:13;100491.63;;;12.83;74.10
11643;BME280;5877;50.930;6.918;2022-09-16T03:08:41;100232.03;;;11.42;74.52
11643;BME280;5877;50.930;6.918;2022-09-16T03:21:52;100362.91;;;11.93;76.33
11643;BME280;5877;50.930;6.918;2022-09-16T03:24:30;100445.22;;;12.35;77.30
11643;BME280;5877;50.930;6.918;2022-09-16T03:27:13;100445.31;;;12.28;77.39
11643;BME280;5877;50.930;6.918;2022-09-16T03:29:55;100386.56;;;11.81;78.07
11643;BME280;5877;50.930;6.918;2022-09-16T03:32:27;100343.03;;;11.67;77.91
11643;BME280;5877;50.930;6.918;2022-09-16T03:35:38;99890.00;;;8.73;77.42
11643;BME280;5877;50.930;6.918;2022-09-16T03:38:06;100257.19;;;11.07;77.68
11643;BME280;5877;50.930;6.918;2022-09-16T03:40:36;100028.25;;;9.56;77.77
11643;BME280;5877;50.930;6.918;2022-09-16T03:43:11;100158.28;;;10.30;78.00
11643;BME280;5877;50.930;6.918;2022-09-16T03:45:38;100129.66;;;10.28;78.05
11643;BME280;5877;50.930;6.918;2022-09-16T03:48:09;100012.19;;;9.52;78.03
11643;BME280;5877;50.930;6.918;2022-09-16T03:50:36;100035.97;;;9.69;78.58
11643;BME280;5877;50.930;6.918;2022-09-16T03:53:03;100446.81;;;12.24;78.94
11643;BME280;5877;50.930;6.918;2022-09-16T03:55:30;100283.81;;;11.11;78.93
11643;BME280;5877;50.930;6.918;2022-09-16T03:57:58;99988.09;;;9.43;77.84
11643;BME280;5877;50.930;6.918;2022-09-16T04:00:28;100080.50;;;10.05;78.18
11643;BME280;5877;50.930;6.918;2022-09-16T04:02:55;100257.22;;;11.19;78.32
11643;BME280;5877;50.930;6.918;2022-09-16T04:05:22;100432.97;;;12.29;78.29
11643;BME280;5877;50.930;6.918;2022-09-16T04:07:52;100416.69;;;12.09;78.62
11643;BME280;5877;50.930;6.918;2022-09-16T04:10:19;100316.19;;;11.65;78.25
11643;BME280;5877;50.930;6.918;2022-09-16T04:12:45;100278.81;;;11.21;78.04
11643;BME280;5877;50.930;6.918;2022-09-16T04:15:13;100351.59;;;11.92;77.64
11643;BME280;5877;50.930;6.918;2022-09-16T04:17:39;100367.59;;;11.91;77.37
11643;BME280;5877;50.930;6.918;2022-09-16T04:20:07;100286.53;;;11.46;76.51
11643;BME280;5877;50.930;6.918;2022-09-16T04:22:34;99897.56;;;8.99;76.42
11643;BME280;5877;50.930;6.918;2022-09-16T04:25:01;100305.09;;;11.63;76.46
11643;BME280;5877;50.930;6.918;2022-09-16T04:27:29;100079.47;;;10.06;75.93
11643;BME280;5877;50.930;6.918;2022-09-16T04:29:55;100417.16;;;12.06;76.09
11643;BME280;5877;50.930;6.918;2022-09-16T04:32:28;100073.81;;;9.91;76.16
11643;BME280;5877;50.930;6.918;2022-09-16T04:34:55;100029.94;;;9.50;76.63
11643;BME280;5877;50.930;6.918;2022-09-16T04:37:22;100428.09;;;11.91;76.90
11643;BME280;5877;50.930;6.918;2022-09-16T04:39:49;100427.59;;;11.82;77.07
11643;BME280;5877;50.930;6.918;2022-09-16T04:42:16;99873.38;;;8.18;76.75
11643;BME280;5877;50.930;6.918;2022-09-16T04:44:43;100411.63;;;11.65;77.25
11643;BME280;5877;50.930;6.918;2022-09-16T04:47:10;100065.66;;;9.44;77.62
11643;BME280;5877;50.930;6.918;2022-09-16T04:49:37;100133.06;;;9.74;77.49
11643;BME280;5877;50.930;6.918;2022-09-16T04:52:05;99587.59;;;6.26;77.39
11643;BME280;5877;50.930;6.918;2022-09-16T04:54:33;100128.44;;;9.33;77.40
11643;BME280;5877;50.930;6.918;2022-09-16T04:57:01;100432.59;;;11.54;77.74
11643;BME280;5877;50.930;6.918;2022-09-16T04:59:30;100438.00;;;11.59;77.39
11643;BME280;5877;50.930;6.918;2022-09-16T05:01:58;100064.56;;;9.34;76.81
11643;BME280;5877;50.930;6.918;2022-09-16T05:04:27;100038.59;;;9.32;76.35
11643;BME280;5877;50.930;6.918;2022-09-16T05:06:55;100338.47;;;11.32;76.96
11643;BME280;5877;50.930;6.918;2022-09-16T05:09:26;99955.22;;;8.93;75.69
11643;BME280;5877;50.930;6.918;2022-09-16T05:11:58;100312.88;;;11.28;75.73
11643;BME280;5877;50.930;6.918;2022-09-16T05:14:26;100354.88;;;11.46;76.12
11643;BME280;5877;50.930;6.918;2022-09-16T05:16:53;100015.97;;;9.38;75.97
11643;BME280;5877;50.930;6.918;2022-09-16T05:19:20;100421.91;;;11.85;76.14
11643;BME280;5877;50.930;6.918;2022-09-16T05:21:46;100361.81;;;11.41;76.30
11643;BME280;5877;50.930;6.918;2022-09-16T05:24:14;100347.97;;;11.33;76.54
11643;BME280;5877;50.930;6.918;2022-09-16T05:26:42;99952.66;;;8.86;75.85
11643;BME280;5877;50.930;6.918;2022-09-16T05:29:14;100465.72;;;11.91;75.62
11643;BME280;5877;50.930;6.918;2022-09-16T05:31:42;99773.44;;;7.97;73.83
11643;BME280;5877;50.930;6.918;2022-09-16T05:36:39;100053.50;;;9.87;72.64
11643;BME280;5877;50.930;6.918;2022-09-16T05:39:11;100229.97;;;11.44;71.90
11643;BME280;5877;50.930;6.918;2022-09-16T05:41:58;100441.00;;;12.92;70.78
11643;BME280;5877;50.930;6.918;2022-09-16T05:44:26;99949.97;;;10.07;69.94
11643;BME280;5877;50.930;6.918;2022-09-16T05:46:53;100428.69;;;13.10;69.23
11643;BME280;5877;50.930;6.918;2022-09-16T05:49:21;100101.09;;;11.03;69.16
11643;BME280;5877;50.930;6.918;2022-09-16T05:51:49;100021.25;;;10.58;68.37
11643;BME280;5877;50.930;6.918;2022-09-16T05:54:18;100310.75;;;12.37;68.27
11643;BME280;5877;50.930;6.918;2022-09-16T05:56:45;100469.72;;;13.17;68.52
11643;BME280;5877;50.930;6.918;2022-09-16T05:59:13;99649.16;;;8.20;68.08
11643;BME280;5877;50.930;6.918;2022-09-16T06:01:44;100426.28;;;13.20;68.32
11643;BME280;5877;50.930;6.918;2022-09-16T06:04:12;100328.69;;;12.63;68.30
11643;BME280;5877;50.930;6.918;2022-09-16T06:06:42;100434.06;;;13.26;68.19
11643;BME280;5877;50.930;6.918;2022-09-16T06:11:40;100200.66;;;11.93;67.14
11643;BME280;5877;50.930;6.918;2022-09-16T06:14:08;100426.63;;;13.52;67.01
11643;BME280;5877;50.930;6.918;2022-09-16T06:16:36;100423.72;;;13.65;66.86
11643;BME280;5877;50.930;6.918;2022-09-16T06:19:06;100398.84;;;13.61;65.89
11643;BME280;5877;50.930;6.918;2022-09-16T06:21:36;100416.66;;;13.82;65.60
11643;BME280;5877;50.930;6.918;2022-09-16T06:24:04;100451.28;;;14.03;64.76
11643;BME280;5877;50.930;6.918;2022-09-16T06:26:36;100433.16;;;14.23;64.57
11643;BME280;5877;50.930;6.918;2022-09-16T06:29:04;100105.06;;;12.28;63.48
11643;BME280;5877;50.930;6.918;2022-09-16T06:31:34;100432.84;;;14.36;63.41
11643;BME280;5877;50.930;6.918;2022-09-16T06:34:06;100259.25;;;13.38;63.54
11643;BME280;5877;50.930;6.918;2022-09-16T06:36:35;100058.72;;;12.27;62.16
11643;BME280;5877;50.930;6.918;2022-09-16T06:39:05;100462.75;;;14.92;61.81
11643;BME280;5877;50.930;6.918;2022-09-16T06:41:33;100374.16;;;14.68;61.41
11643;BME280;5877;50.930;6.918;2022-09-16T06:44:01;100457.72;;;15.56;60.16
11643;BME280;5877;50.930;6.918;2022-09-16T06:46:28;100414.69;;;15.66;59.03
11643;BME280;5877;50.930;6.918;2022-09-16T06:48:57;100041.84;;;13.23;59.09
11643;BME280;5877;50.930;6.918;2022-09-16T06:51:33;100282.63;;;14.78;58.76
11643;BME280;5877;50.930;6.918;2022-09-16T06:54:02;99934.22;;;12.77;58.50
11643;BME280;5877;50.930;6.918;2022-09-16T06:56:35;99979.22;;;12.92;58.48
11643;BME280;5877;50.930;6.918;2022-09-16T06:59:06;100257.50;;;14.76;59.02
11643;BME280;5877;50.930;6.918;2022-09-16T07:01:34;100424.28;;;15.99;58.56
11643;BME280;5877;50.930;6.918;2022-09-16T07:04:03;99985.88;;;13.38;58.03
11643;BME280;5877;50.930;6.918;2022-09-16T07:06:34;100393.44;;;16.56;56.86
11643;BME280;5877;50.930;6.918;2022-09-16T07:09:21;100434.56;;;17.99;52.25
11643;BME280;5877;50.930;6.918;2022-09-16T07:11:48;100245.66;;;16.11;53.85
11643;BME280;5877;50.930;6.918;2022-09-16T07:14:15;100369.53;;;16.46;54.63
11643;BME280;5877;50.930;6.918;2022-09-16T07:16:42;100155.41;;;14.91;55.25
11643;BME280;5877;50.930;6.918;2022-09-16T07:19:09;100334.97;;;15.89;56.16
11643;BME280;5877;50.930;6.918;2022-09-16T07:21:36;99430.69;;;9.97;55.25
11643;BME280;5877;50.930;6.918;2022-09-16T07:24:04;99620.34;;;11.44;55.04
11643;BME280;5877;50.930;6.918;2022-09-16T07:26:33;100443.72;;;16.83;55.27
11643;BME280;5877;50.930;6.918;2022-09-16T07:29:02;99927.34;;;14.17;53.94
11643;BME280;5877;50.930;6.918;2022-09-16T07:31:31;100281.75;;;16.85;52.63
11643;BME280;5877;50.930;6.918;2022-09-16T07:33:59;100130.72;;;16.07;52.12
11643;BME280;5877;50.930;6.918;2022-09-16T07:36:36;100276.47;;;16.90;52.63
11643;BME280;5877;50.930;6.918;2022-09-16T07:39:04;99974.84;;;14.81;52.80
11643;BME280;5877;50.930;6.918;2022-09-16T07:41:37;100437.44;;;17.72;53.00
11643;BME280;5877;50.930;6.918;2022-09-16T07:44:08;100394.91;;;17.57;53.06
11643;BME280;5877;50.930;6.918;2022-09-16T07:46:36;100434.28;;;17.91;53.79
11643;BME280;5877;50.930;6.918;2022-09-16T07:49:05;100460.59;;;17.97;53.27
11643;BME280;5877;50.930;6.918;2022-09-16T07:51:34;100449.34;;;18.87;52.03
11643;BME280;5877;50.930;6.918;2022-09-16T07:54:13;99893.50;;;16.37;47.59
11643;BME280;5877;50.930;6.918;2022-09-16T07:56:44;99569.06;;;14.90;46.61
11643;BME280;5877;50.930;6.918;2022-09-16T07:59:14;100025.69;;;17.79;46.27
11643;BME280;5877;50.930;6.918;2022-09-16T08:01:44;99644.34;;;14.67;47.01
11643;BME280;5877;50.930;6.918;2022-09-16T08:04:11;100468.06;;;19.41;48.57
11643;BME280;5877;50.930;6.918;2022-09-16T08:06:39;100475.72;;;18.73;49.62
11643;BME280;5877;50.930;6.918;2022-09-16T08:09:07;100245.97;;;16.87;50.65
11643;BME280;5877;50.930;6.918;2022-09-16T08:11:54;100104.34;;;15.65;51.57
11643;BME280;5877;50.930;6.918;2022-09-16T08:14:21;100295.84;;;17.01;51.63
11643;BME280;5877;50.930;6.918;2022-09-16T08:16:48;100422.84;;;17.80;51.34
11643;BME280;5877;50.930;6.918;2022-09-16T08:19:18;100103.56;;;15.70;51.64
11643;BME280;5877;50.930;6.918;2022-09-16T08:21:49;99884.19;;;14.33;51.44
11643;BME280;5877;50.930;6.918;2022-09-16T08:24:16;100477.31;;;18.38;51.07
11643;BME280;5877;50.930;6.918;2022-09-16T08:26:43;100481.56;;;18.29;51.18
11643;BME280;5877;50.930;6.918;2022-09-16T08:29:10;100216.53;;;16.79;50.84
11643;BME280;5877;50.930;6.918;2022-09-16T08:31:39;100067.66;;;15.89;50.71
11643;BME280;5877;50.930;6.918;2022-09-16T08:34:06;100484.50;;;18.48;50.67
11643;BME280;5877;50.930;6.918;2022-09-16T08:36:34;100150.72;;;16.50;49.95
11643;BME280;5877;50.930;6.918;2022-09-16T08:39:01;100480.22;;;18.57;50.04
11643;BME280;5877;50.930;6.918;2022-09-16T08:47:34;100485.63;;;19.42;48.29
11643;BME280;5877;50.930;6.918;2022-09-16T08:50:11;100491.41;;;19.64;46.94
11643;BME280;5877;50.930;6.918;2022-09-16T08:52:41;100348.38;;;18.66;47.24
11643;BME280;5877;50.930;6.918;2022-09-16T08:55:23;100169.59;;;17.56;46.64
11643;BME280;5877;50.930;6.918;2022-09-16T08:57:58;100329.13;;;18.95;45.94
11643;BME280;5877;50.930;6.918;2022-09-16T09:00:26;100503.16;;;20.41;45.45
11643;BME280;5877;50.930;6.918;2022-09-16T09:05:53;100036.22;;;17.25;44.63
11643;BME280;5877;50.930;6.918;2022-09-16T09:11:27;100431.03;;;19.44;45.94
11643;BME280;5877;50.930;6.918;2022-09-16T09:16:45;100499.84;;;21.93;41.72
11643;BME280;5877;50.930;6.918;2022-09-16T09:19:18;100494.75;;;22.61;39.38
11643;BME280;5877;50.930;6.918;2022-09-16T09:22:14;100366.78;;;22.09;38.41
11643;BME280;5877;50.930;6.918;2022-09-16T09:27:46;100299.88;;;22.55;37.94
11643;BME280;5877;50.930;6.918;2022-09-16T09:30:22;100444.16;;;23.06;37.45
11643;BME280;5877;50.930;6.918;2022-09-16T09:33:13;100264.81;;;21.36;38.30
11643;BME280;5877;50.930;6.918;2022-09-16T09:38:56;100480.28;;;21.79;40.46
11643;BME280;5877;50.930;6.918;2022-09-16T09:41:33;100302.31;;;20.51;39.53
11643;BME280;5877;50.930;6.918;2022-09-16T09:46:47;100233.34;;;19.34;41.73
11643;BME280;5877;50.930;6.918;2022-09-16T09:49:32;100482.22;;;20.59;43.36
11643;BME280;5877;50.930;6.918;2022-09-16T09:52:10;100484.47;;;20.07;44.17
11643;BME280;5877;50.930;6.918;2022-09-16T09:54:44;99972.69;;;16.48;45.00
11643;BME280;5877;50.930;6.918;2022-09-16T09:57:29;100483.41;;;19.64;45.46
11643;BME280;5877;50.930;6.918;2022-09-16T10:00:10;100453.19;;;19.30;46.39
11643;BME280;5877;50.930;6.918;2022-09-16T10:02:40;100356.13;;;18.42;46.83
11643;BME280;5877;50.930;6.918;2022-09-16T10:05:29;100345.34;;;17.78;47.62
11643;BME280;5877;50.930;6.918;2022-09-16T10:08:26;100181.81;;;16.75;47.97
11643;BME280;5877;50.930;6.918;2022-09-16T10:11:31;100055.56;;;16.13;46.68
11643;BME280;5877;50.930;6.918;2022-09-16T10:14:00;100213.41;;;17.28;46.59
11643;BME280;5877;50.930;6.918;2022-09-16T10:16:31;100484.69;;;19.07;46.82
11643;BME280;5877;50.930;6.918;2022-09-16T10:19:06;100315.75;;;18.30;45.75
11643;BME280;5877;50.930;6.918;2022-09-16T10:21:47;100383.41;;;18.89;45.16
11643;BME280;5877;50.930;6.918;2022-09-16T10:24:32;100477.75;;;19.76;44.64
11643;BME280;5877;50.930;6.918;2022-09-16T10:27:14;100479.03;;;19.84;43.64
11643;BME280;5877;50.930;6.918;2022-09-16T10:30:41;100258.66;;;18.23;44.33
11643;BME280;5877;50.930;6.918;2022-09-16T10:33:23;100151.84;;;17.66;43.71
11643;BME280;5877;50.930;6.918;2022-09-16T10:35:55;100274.78;;;18.52;43.24
11643;BME280;5877;50.930;6.918;2022-09-16T10:38:32;100475.72;;;20.02;42.66
11643;BME280;5877;50.930;6.918;2022-09-16T10:41:15;100465.47;;;20.19;42.79
11643;BME280;5877;50.930;6.918;2022-09-16T10:43:52;99907.50;;;16.58;43.31
11643;BME280;5877;50.930;6.918;2022-09-16T10:46:20;100362.09;;;19.43;43.21
11643;BME280;5877;50.930;6.918;2022-09-16T10:48:49;100452.13;;;20.19;42.72
11643;BME280;5877;50.930;6.918;2022-09-16T10:51:24;100459.53;;;20.27;41.68
11643;BME280;5877;50.930;6.918;2022-09-16T10:54:25;100447.03;;;20.23;41.97
11643;BME280;5877;50.930;6.918;2022-09-16T10:56:53;99902.13;;;16.98;42.13
11643;BME280;5877;50.930;6.918;2022-09-16T10:59:20;100179.44;;;18.84;41.51
11643;BME280;5877;50.930;6.918;2022-09-16T11:08:08;99948.25;;;17.62;39.44
11643;BME280;5877;50.930;6.918;2022-09-16T11:10:52;100452.25;;;20.91;39.86
11643;BME280;5877;50.930;6.918;2022-09-16T11:27:40;100448.78;;;19.00;44.05
11643;BME280;5877;50.930;6.918;2022-09-16T11:30:13;100438.41;;;19.03;43.25
11643;BME280;5877;50.930;6.918;2022-09-16T11:35:34;100432.34;;;18.88;43.82
11643;BME280;5877;50.930;6.918;2022-09-16T11:41:18;100445.34;;;18.99;44.14
11643;BME280;5877;50.930;6.918;2022-09-16T11:44:25;100347.03;;;18.59;43.38
11643;BME280;5877;50.930;6.918;2022-09-16T11:57:28;100471.41;;;19.67;40.18
11643;BME280;5877;50.930;6.918;2022-09-16T12:00:11;100449.03;;;19.68;41.06
11643;BME280;5877;50.930;6.918;2022-09-16T12:02:57;100165.34;;;17.80;41.91
11643;BME280;5877;50.930;6.918;2022-09-16T12:05:40;100381.91;;;19.22;41.82
11643;BME280;5877;50.930;6.918;2022-09-16T12:08:21;100457.03;;;20.07;41.22
11643;BME280;5877;50.930;6.918;2022-09-16T12:10:53;100292.72;;;18.85;40.86
11643;BME280;5877;50.930;6.918;2022-09-16T12:16:08;100212.59;;;18.47;41.20
11643;BME280;5877;50.930;6.918;2022-09-16T12:21:31;100355.16;;;19.47;41.99
11643;BME280;5877;50.930;6.918;2022-09-16T12:24:11;99795.56;;;16.16;41.51
11643;BME280;5877;50.930;6.918;2022-09-16T12:26:46;100072.97;;;18.60;40.15
11643;BME280;5877;50.930;6.918;2022-09-16T12:29:18;100498.94;;;21.41;40.14
11643;BME280;5877;50.930;6.918;2022-09-16T12:32:04;100348.47;;;19.05;42.08
11643;BME280;5877;50.930;6.918;2022-09-16T12:35:02;100418.53;;;17.48;47.68
11643;BME280;5877;50.930;6.918;2022-09-16T12:37:48;100553.53;;;16.93;58.42
11643;BME280;5877;50.930;6.918;2022-09-16T12:42:59;100555.53;;;14.17;73.17
11643;BME280;5877;50.930;6.918;2022-09-16T13:02:17;100435.75;;;13.32;79.15
11643;BME280;5877;50.930;6.918;2022-09-16T13:04:49;100369.50;;;13.41;76.56
11643;BME280;5877;50.930;6.918;2022-09-16T13:07:28;100094.13;;;11.79;74.41
11643;BME280;5877;50.930;6.918;2022-09-16T13:10:03;100523.91;;;15.01;74.02
11643;BME280;5877;50.930;6.918;2022-09-16T13:12:32;100162.94;;;12.85;68.90
11643;BME280;5877;50.930;6.918;2022-09-16T13:17:49;100200.75;;;13.41;66.42
11643;BME280;5877;50.930;6.918;2022-09-16T13:20:29;100533.94;;;15.81;65.47
11643;BME280;5877;50.930;6.918;2022-09-16T13:23:34;100222.47;;;13.81;64.43
11643;BME280;5877;50.930;6.918;2022-09-16T13:26:08;100425.09;;;15.02;63.79
11643;BME280;5877;50.930;6.918;2022-09-16T13:36:29;100525.88;;;15.93;62.23
11643;BME280;5877;50.930;6.918;2022-09-16T13:39:04;100516.28;;;16.13;62.89
11643;BME280;5877;50.930;6.918;2022-09-16T13:41:42;100523.06;;;16.31;61.62
11643;BME280;5877;50.930;6.918;2022-09-16T13:44:38;100525.00;;;16.41;60.54
11643;BME280;5877;50.930;6.918;2022-09-16T13:49:42;100148.47;;;14.37;57.88
11643;BME280;5877;50.930;6.918;2022-09-16T13:52:31;100045.78;;;13.86;57.14
11643;BME280;5877;50.930;6.918;2022-09-16T13:55:00;100109.38;;;14.34;56.34
11643;BME280;5877;50.930;6.918;2022-09-16T14:00:36;100046.66;;;13.92;55.55
11643;BME280;5877;50.930;6.918;2022-09-16T14:03:25;100548.78;;;16.95;55.52
11643;BME280;5877;50.930;6.918;2022-09-16T14:08:45;100127.06;;;14.33;55.29
11643;BME280;5877;50.930;6.918;2022-09-16T14:12:02;100235.97;;;14.89;54.72
11643;BME280;5877;50.930;6.918;2022-09-16T14:14:26;100218.31;;;14.68;55.10
11643;BME280;5877;50.930;6.918;2022-09-16T14:17:45;100352.22;;;15.91;55.46
11643;BME280;5877;50.930;6.918;2022-09-16T14:20:19;100449.44;;;17.12;54.75
11643;BME280;5877;50.930;6.918;2022-09-16T14:23:02;100524.09;;;18.14;53.67
11643;BME280;5877;50.930;6.918;2022-09-16T14:25:32;99978.38;;;14.97;52.29
11643;BME280;5877;50.930;6.918;2022-09-16T14:30:34;100346.94;;;17.74;51.47
11643;BME280;5877;50.930;6.918;2022-09-16T14:33:01;100344.28;;;17.69;49.60
11643;BME280;5877;50.930;6.918;2022-09-16T14:35:29;100204.34;;;16.73;50.43
11643;BME280;5877;50.930;6.918;2022-09-16T14:37:59;100024.06;;;15.34;50.49
11643;BME280;5877;50.930;6.918;2022-09-16T14:40:28;100496.47;;;18.15;50.94
11643;BME280;5877;50.930;6.918;2022-09-16T14:43:01;100439.50;;;17.50;51.59
11643;BME280;5877;50.930;6.918;2022-09-16T14:45:31;100251.53;;;16.18;52.86
11643;BME280;5877;50.930;6.918;2022-09-16T14:48:03;100496.00;;;17.45;53.71
11643;BME280;5877;50.930;6.918;2022-09-16T14:50:35;99675.97;;;11.91;53.79
11643;BME280;5877;50.930;6.918;2022-09-16T14:53:05;100144.56;;;14.93;54.95
11643;BME280;5877;50.930;6.918;2022-09-16T14:55:35;100384.84;;;16.39;55.01
11643;BME280;5877;50.930;6.918;2022-09-16T14:58:08;100398.53;;;16.26;55.25
11643;BME280;5877;50.930;6.918;2022-09-16T15:00:47;99956.66;;;13.40;54.76
11643;BME280;5877;50.930;6.918;2022-09-16T15:05:46;100514.81;;;16.92;56.88
11643;BME280;5877;50.930;6.918;2022-09-16T15:08:19;100496.38;;;17.12;56.06
11643;BME280;5877;50.930;6.918;2022-09-16T15:10:53;99566.22;;;11.43;55.33
11643;BME280;5877;50.930;6.918;2022-09-16T15:13:24;100321.28;;;16.39;54.65
11643;BME280;5877;50.930;6.918;2022-09-16T15:15:58;100312.47;;;16.29;53.58
11643;BME280;5877;50.930;6.918;2022-09-16T15:18:30;99953.97;;;13.83;52.94
11643;BME280;5877;50.930;6.918;2022-09-16T15:23:38;100297.97;;;15.57;53.73
11643;BME280;5877;50.930;6.918;2022-09-16T15:26:13;100400.72;;;15.70;54.20
11643;BME280;5877;50.930;6.918;2022-09-16T15:29:01;99940.81;;;12.57;54.16
11643;BME280;5877;50.930;6.918;2022-09-16T15:31:34;99873.50;;;12.11;54.53
11643;BME280;5877;50.930;6.918;2022-09-16T15:34:25;100493.66;;;16.01;53.76
11643;BME280;5877;50.930;6.918;2022-09-16T15:37:00;99996.63;;;12.76;53.87
11643;BME280;5877;50.930;6.918;2022-09-16T15:42:21;100400.84;;;14.88;54.60
11643;BME280;5877;50.930;6.918;2022-09-16T15:44:56;100290.31;;;14.03;55.34
11643;BME280;5877;50.930;6.918;2022-09-16T15:47:25;100497.44;;;15.17;56.44
11643;BME280;5877;50.930;6.918;2022-09-16T15:49:59;100150.25;;;12.82;56.51
11643;BME280;5877;50.930;6.918;2022-09-16T15:53:02;100492.44;;;14.99;57.09
11643;BME280;5877;50.930;6.918;2022-09-16T15:56:07;100538.13;;;14.78;57.65
11643;BME280;5877;50.930;6.918;2022-09-16T15:58:38;100326.06;;;13.60;58.51
11643;BME280;5877;50.930;6.918;2022-09-16T16:04:05;100161.66;;;11.90;58.32
11643;BME280;5877;50.930;6.918;2022-09-16T16:06:49;100496.66;;;14.16;59.43
11643;BME280;5877;50.930;6.918;2022-09-16T16:11:55;100410.59;;;13.53;59.93